createdAt,value
2017-01-11T00:00:43.191Z,0
2017-01-11T00:01:52.167Z,0
2017-01-11T00:03:01.141Z,0
2017-01-11T00:04:10.124Z,0
2017-01-11T00:05:20.349Z,0
2017-01-11T00:06:29.451Z,0
2017-01-11T00:07:38.824Z,0
2017-01-11T00:08:49.666Z,0
2017-01-11T00:09:58.646Z,0
2017-01-11T00:11:08.733Z,0
2017-01-11T00:12:18.915Z,0
2017-01-11T00:13:29.519Z,0
2017-01-11T00:14:39.506Z,0
2017-01-11T00:15:51.020Z,0
2017-01-11T00:17:01.652Z,0
2017-01-11T00:18:11.664Z,0
2017-01-11T00:19:22.531Z,0
2017-01-11T00:20:34.015Z,0
2017-01-11T00:21:45.932Z,0
2017-01-11T00:22:57.361Z,0
2017-01-11T00:24:10.539Z,0
2017-01-11T00:25:19.517Z,0
2017-01-11T00:26:28.542Z,0
2017-01-11T00:27:37.518Z,0
2017-01-11T00:28:46.596Z,0
2017-01-11T00:29:55.575Z,0
2017-01-11T00:31:04.554Z,0
2017-01-11T00:32:13.536Z,0
2017-01-11T00:33:22.537Z,0
2017-01-11T00:34:31.514Z,0
2017-01-11T00:35:40.491Z,0
2017-01-11T00:36:49.469Z,0
2017-01-11T00:37:58.447Z,0
2017-01-11T00:39:07.448Z,0
2017-01-11T00:40:16.427Z,0
2017-01-11T00:41:25.424Z,0
2017-01-11T00:42:34.404Z,0
2017-01-11T00:43:43.383Z,0
2017-01-11T00:44:52.362Z,0
2017-01-11T00:46:01.340Z,0
2017-01-11T00:47:10.321Z,0
2017-01-11T00:48:19.299Z,0
2017-01-11T00:49:28.280Z,0
2017-01-11T00:50:37.262Z,0
2017-01-11T00:51:46.237Z,0
2017-01-11T00:52:55.213Z,0
2017-01-11T00:54:04.192Z,0
2017-01-11T00:55:13.169Z,0
2017-01-11T00:56:22.148Z,0
2017-01-11T00:57:31.127Z,0
2017-01-11T00:58:40.104Z,0
2017-01-11T00:59:49.088Z,0
2017-01-11T01:00:58.067Z,0
2017-01-11T01:02:07.056Z,0
2017-01-11T01:03:16.058Z,0
2017-01-11T01:04:25.039Z,0
2017-01-11T01:05:34.022Z,0
2017-01-11T01:06:42.999Z,0
2017-01-11T01:07:51.984Z,0
2017-01-11T01:09:00.966Z,0
2017-01-11T01:10:09.970Z,0
2017-01-11T01:11:18.951Z,0
2017-01-11T01:12:27.929Z,0
2017-01-11T01:13:36.913Z,0
2017-01-11T01:14:45.890Z,0
2017-01-11T01:15:54.868Z,0
2017-01-11T01:17:03.877Z,0
2017-01-11T01:18:12.858Z,0
2017-01-11T01:19:21.836Z,0
2017-01-11T01:20:30.813Z,0
2017-01-11T01:21:39.787Z,0
2017-01-11T01:22:48.767Z,0
2017-01-11T01:23:57.747Z,0
2017-01-11T01:25:06.724Z,0
2017-01-11T01:26:15.703Z,0
2017-01-11T01:27:24.683Z,0
2017-01-11T01:28:33.658Z,0
2017-01-11T01:29:42.644Z,0
2017-01-11T01:30:51.620Z,0
2017-01-11T01:32:00.594Z,0
2017-01-11T01:33:09.575Z,0
2017-01-11T01:34:18.552Z,0
2017-01-11T01:35:27.531Z,0
2017-01-11T01:36:36.512Z,0
2017-01-11T01:37:45.491Z,0
2017-01-11T01:38:54.470Z,0
2017-01-11T01:40:03.444Z,0
2017-01-11T01:41:12.421Z,0
2017-01-11T01:42:21.404Z,0
2017-01-11T01:43:30.385Z,0
2017-01-11T01:44:39.360Z,0
2017-01-11T01:45:48.338Z,0
2017-01-11T01:46:57.317Z,0
2017-01-11T01:48:06.294Z,0
2017-01-11T01:49:15.269Z,0
2017-01-11T01:50:24.268Z,0
2017-01-11T01:51:33.249Z,0
2017-01-11T01:52:42.220Z,0
2017-01-11T01:53:51.229Z,0
2017-01-11T01:55:00.213Z,0
2017-01-11T01:56:09.210Z,0
2017-01-11T01:57:18.190Z,0
2017-01-11T01:58:27.167Z,0
2017-01-11T01:59:36.149Z,0
2017-01-11T02:00:45.124Z,0
2017-01-11T02:01:54.101Z,0
2017-01-11T02:03:03.076Z,0
2017-01-11T02:04:12.052Z,0
2017-01-11T02:05:21.025Z,0
2017-01-11T02:06:30.004Z,0
2017-01-11T02:07:38.980Z,0
2017-01-11T02:08:47.986Z,0
2017-01-11T02:09:56.960Z,0
2017-01-11T02:11:05.941Z,0
2017-01-11T02:12:14.918Z,0
2017-01-11T02:13:23.900Z,0
2017-01-11T02:14:32.877Z,0
2017-01-11T02:15:41.851Z,0
2017-01-11T02:16:50.827Z,0
2017-01-11T02:17:59.809Z,0
2017-01-11T02:19:08.810Z,0
2017-01-11T02:20:17.792Z,0
2017-01-11T02:21:26.775Z,0
2017-01-11T02:22:35.746Z,0
2017-01-11T02:23:44.726Z,0
2017-01-11T02:24:53.701Z,0
2017-01-11T02:26:02.708Z,0
2017-01-11T02:27:11.684Z,0
2017-01-11T02:28:20.662Z,0
2017-01-11T02:29:29.644Z,0
2017-01-11T02:30:38.628Z,0
2017-01-11T02:31:47.607Z,0
2017-01-11T02:32:56.586Z,0
2017-01-11T02:34:05.565Z,0
2017-01-11T02:35:14.569Z,0
2017-01-11T02:36:23.547Z,0
2017-01-11T02:37:32.524Z,0
2017-01-11T02:38:41.500Z,0
2017-01-11T02:39:50.472Z,0
2017-01-11T02:40:59.462Z,0
2017-01-11T02:42:08.442Z,0
2017-01-11T02:43:17.423Z,0
2017-01-11T02:44:26.400Z,0
2017-01-11T02:45:35.380Z,0
2017-01-11T02:46:44.388Z,0
2017-01-11T02:47:53.364Z,0
2017-01-11T02:49:02.344Z,0
2017-01-11T02:50:11.322Z,0
2017-01-11T02:51:20.301Z,0
2017-01-11T02:52:29.284Z,0
2017-01-11T02:53:38.268Z,0
2017-01-11T02:54:47.247Z,0
2017-01-11T02:55:56.218Z,0
2017-01-11T02:57:05.201Z,0
2017-01-11T02:58:14.182Z,0
2017-01-11T02:59:23.168Z,0
2017-01-11T03:00:32.143Z,0
2017-01-11T03:01:41.118Z,0
2017-01-11T03:02:50.095Z,0
2017-01-11T03:03:59.074Z,0
2017-01-11T03:05:08.051Z,0
2017-01-11T03:06:17.032Z,0
2017-01-11T03:07:26.012Z,0
2017-01-11T03:08:34.992Z,0
2017-01-11T03:09:43.975Z,0
2017-01-11T03:10:52.957Z,0
2017-01-11T03:12:01.939Z,0
2017-01-11T03:13:10.915Z,0
2017-01-11T03:14:19.894Z,0
2017-01-11T03:15:28.869Z,0
2017-01-11T03:16:37.864Z,0
2017-01-11T03:17:46.845Z,0
2017-01-11T03:18:55.819Z,0
2017-01-11T03:20:04.804Z,0
2017-01-11T03:21:13.781Z,0
2017-01-11T03:22:22.782Z,0
2017-01-11T03:23:31.763Z,0
2017-01-11T03:24:40.743Z,0
2017-01-11T03:25:49.720Z,0
2017-01-11T03:26:58.736Z,0
2017-01-11T03:28:07.716Z,0
2017-01-11T03:29:16.692Z,0
2017-01-11T03:30:25.668Z,0
2017-01-11T03:31:34.648Z,0
2017-01-11T03:32:43.621Z,0
2017-01-11T03:33:52.601Z,0
2017-01-11T03:35:01.576Z,0
2017-01-11T03:36:10.552Z,0
2017-01-11T03:37:19.535Z,0
2017-01-11T03:38:28.517Z,0
2017-01-11T03:39:37.494Z,0
2017-01-11T03:40:46.474Z,0
2017-01-11T03:41:55.476Z,0
2017-01-11T03:43:04.451Z,0
2017-01-11T03:44:13.436Z,0
2017-01-11T03:45:22.417Z,0
2017-01-11T03:46:31.398Z,0
2017-01-11T03:47:40.379Z,0
2017-01-11T03:48:49.364Z,0
2017-01-11T03:49:58.343Z,0
2017-01-11T03:51:07.318Z,0
2017-01-11T03:52:16.299Z,0
2017-01-11T03:53:25.307Z,0
2017-01-11T03:54:34.289Z,0
2017-01-11T03:55:43.262Z,0
2017-01-11T03:56:52.239Z,0
2017-01-11T03:58:01.216Z,0
2017-01-11T03:59:10.210Z,0
2017-01-11T04:00:19.188Z,0
2017-01-11T04:01:28.163Z,0
2017-01-11T04:02:37.144Z,0
2017-01-11T04:03:46.116Z,0
2017-01-11T04:04:55.095Z,0
2017-01-11T04:06:04.076Z,0
2017-01-11T04:07:13.061Z,0
2017-01-11T04:08:28.311Z,0
2017-01-11T04:09:37.291Z,0
2017-01-11T04:10:46.294Z,0
2017-01-11T04:11:55.275Z,0
2017-01-11T04:13:04.299Z,0
2017-01-11T04:14:13.280Z,0
2017-01-11T04:15:22.267Z,0
2017-01-11T04:16:31.246Z,0
2017-01-11T04:17:40.225Z,0
2017-01-11T04:18:49.204Z,0
2017-01-11T04:19:58.191Z,0
2017-01-11T04:21:07.172Z,0
2017-01-11T04:22:16.159Z,0
2017-01-11T04:23:25.144Z,0
2017-01-11T04:24:34.119Z,0
2017-01-11T04:25:43.101Z,0
2017-01-11T04:26:52.081Z,0
2017-01-11T04:28:01.089Z,0
2017-01-11T04:29:10.066Z,0
2017-01-11T04:30:19.043Z,0
2017-01-11T04:31:28.022Z,0
2017-01-11T04:32:37.011Z,0
2017-01-11T04:33:45.989Z,0
2017-01-11T04:34:54.966Z,0
2017-01-11T04:36:03.945Z,0
2017-01-11T04:37:12.926Z,0
2017-01-11T04:38:21.902Z,0
2017-01-11T04:39:30.884Z,0
2017-01-11T04:40:39.865Z,0
2017-01-11T04:41:48.843Z,0
2017-01-11T04:42:57.818Z,0
2017-01-11T04:44:06.799Z,0
2017-01-11T04:45:15.778Z,0
2017-01-11T04:46:24.760Z,0
2017-01-11T04:47:33.739Z,0
2017-01-11T04:48:42.716Z,0
2017-01-11T04:49:51.695Z,0
2017-01-11T04:51:00.663Z,0
2017-01-11T04:52:09.638Z,0
2017-01-11T04:53:18.621Z,0
2017-01-11T04:54:27.596Z,0
2017-01-11T04:55:36.577Z,0
2017-01-11T04:56:45.577Z,0
2017-01-11T04:57:54.559Z,0
2017-01-11T04:59:03.539Z,0
2017-01-11T05:00:12.516Z,0
2017-01-11T05:01:21.502Z,0
2017-01-11T05:02:30.482Z,0
2017-01-11T05:03:39.457Z,0
2017-01-11T05:04:48.432Z,0
2017-01-11T05:05:57.413Z,0
2017-01-11T05:07:06.390Z,0
2017-01-11T05:08:15.373Z,0
2017-01-11T05:09:24.344Z,0
2017-01-11T05:10:33.325Z,0
2017-01-11T05:11:42.311Z,0
2017-01-11T05:12:51.290Z,0
2017-01-11T05:14:00.267Z,0
2017-01-11T05:15:09.243Z,0
2017-01-11T05:16:18.217Z,0
2017-01-11T05:17:27.195Z,0
2017-01-11T05:18:36.171Z,0
2017-01-11T05:19:45.147Z,0
2017-01-11T05:20:54.122Z,0
2017-01-11T05:22:03.124Z,0
2017-01-11T05:23:12.096Z,0
2017-01-11T05:24:21.075Z,0
2017-01-11T05:25:30.056Z,0
2017-01-11T05:26:39.031Z,0
2017-01-11T05:27:48.009Z,0
2017-01-11T05:28:56.985Z,0
2017-01-11T05:30:05.960Z,0
2017-01-11T05:31:14.933Z,0
2017-01-11T05:32:23.914Z,0
2017-01-11T05:33:32.889Z,0
2017-01-11T05:34:41.873Z,0
2017-01-11T05:35:50.850Z,0
2017-01-11T05:36:59.831Z,0
2017-01-11T05:38:08.812Z,0
2017-01-11T05:39:17.788Z,0
2017-01-11T05:40:26.763Z,0
2017-01-11T05:41:35.743Z,0
2017-01-11T05:42:44.720Z,0
2017-01-11T05:43:53.703Z,0
2017-01-11T05:45:02.685Z,0
2017-01-11T05:46:12.072Z,0
2017-01-11T05:47:21.047Z,0
2017-01-11T05:48:30.025Z,0
2017-01-11T05:49:39.001Z,0
2017-01-11T05:50:47.978Z,0
2017-01-11T05:51:56.957Z,0
2017-01-11T05:53:05.937Z,0
2017-01-11T05:54:14.923Z,0
2017-01-11T05:55:23.897Z,0
2017-01-11T05:56:32.874Z,0
2017-01-11T05:57:41.861Z,0
2017-01-11T05:58:50.836Z,0
2017-01-11T05:59:59.814Z,0
2017-01-11T06:01:08.799Z,0
2017-01-11T06:02:17.782Z,0
2017-01-11T06:03:26.761Z,0
2017-01-11T06:04:35.743Z,0
2017-01-11T06:05:44.724Z,0
2017-01-11T06:06:53.706Z,0
2017-01-11T06:08:02.680Z,0
2017-01-11T06:09:11.662Z,0
2017-01-11T06:10:20.647Z,0
2017-01-11T06:11:29.627Z,0
2017-01-11T06:12:38.605Z,0
2017-01-11T06:13:47.580Z,0
2017-01-11T06:14:56.560Z,0
2017-01-11T06:16:05.539Z,0
2017-01-11T06:17:14.517Z,0
2017-01-11T06:18:23.496Z,0
2017-01-11T06:19:32.473Z,0
2017-01-11T06:20:41.454Z,0
2017-01-11T06:21:50.447Z,0
2017-01-11T06:22:59.431Z,0
2017-01-11T06:24:08.409Z,0
2017-01-11T06:25:17.385Z,0
2017-01-11T06:26:26.363Z,0
2017-01-11T06:27:35.340Z,0
2017-01-11T06:28:44.321Z,0
2017-01-11T06:29:53.297Z,0
2017-01-11T06:31:02.272Z,0
2017-01-11T06:32:11.253Z,0
2017-01-11T06:33:20.234Z,0
2017-01-11T06:34:29.217Z,0
2017-01-11T06:35:38.205Z,0
2017-01-11T06:36:47.183Z,0
2017-01-11T06:37:56.164Z,0
2017-01-11T06:39:05.179Z,0
2017-01-11T06:40:14.160Z,0
2017-01-11T06:41:23.143Z,0
2017-01-11T06:42:32.126Z,0
2017-01-11T06:43:41.099Z,0
2017-01-11T06:44:50.081Z,0
2017-01-11T06:45:59.056Z,0
2017-01-11T06:47:08.035Z,0
2017-01-11T06:48:17.013Z,0
2017-01-11T06:49:25.992Z,0
2017-01-11T06:50:34.967Z,0
2017-01-11T06:51:43.951Z,0
2017-01-11T06:52:52.926Z,0
2017-01-11T06:54:01.900Z,0
2017-01-11T06:55:10.877Z,0
2017-01-11T06:56:19.858Z,0
2017-01-11T06:57:28.841Z,0
2017-01-11T06:58:37.820Z,0
2017-01-11T06:59:46.794Z,0
2017-01-11T07:00:55.777Z,0
2017-01-11T07:02:04.753Z,0
2017-01-11T07:03:13.730Z,0
2017-01-11T07:04:22.707Z,0
2017-01-11T07:05:31.680Z,0
2017-01-11T07:06:40.654Z,0
2017-01-11T07:07:49.626Z,0
2017-01-11T07:08:58.603Z,0
2017-01-11T07:10:07.582Z,0
2017-01-11T07:11:16.561Z,0
2017-01-11T07:12:30.240Z,0
2017-01-11T07:13:39.215Z,0
2017-01-11T07:14:48.193Z,0
2017-01-11T07:15:57.172Z,0
2017-01-11T07:17:06.155Z,0
2017-01-11T07:18:15.132Z,0
2017-01-11T07:19:24.111Z,0
2017-01-11T07:20:33.087Z,0
2017-01-11T07:21:42.066Z,0
2017-01-11T07:22:51.040Z,0
2017-01-11T07:24:00.019Z,0
2017-01-11T07:25:09.025Z,0
2017-01-11T07:26:18.003Z,0
2017-01-11T07:27:27.025Z,0
2017-01-11T07:28:36.410Z,0
2017-01-11T07:29:45.419Z,0
2017-01-11T07:30:54.397Z,0
2017-01-11T07:32:03.377Z,0
2017-01-11T07:33:12.357Z,0
2017-01-11T07:34:21.336Z,5
2017-01-11T07:35:30.315Z,5
2017-01-11T07:36:39.291Z,5
2017-01-11T07:37:48.265Z,5
2017-01-11T07:38:57.243Z,5
2017-01-11T07:40:06.216Z,5
2017-01-11T07:41:15.200Z,5
2017-01-11T07:42:24.175Z,5
2017-01-11T07:43:33.153Z,5
2017-01-11T07:44:42.134Z,5
2017-01-11T07:45:51.114Z,5
2017-01-11T07:47:00.090Z,5
2017-01-11T07:48:09.064Z,5
2017-01-11T07:49:18.040Z,5
2017-01-11T07:50:27.024Z,5
2017-01-11T07:51:36.010Z,5
2017-01-11T07:52:44.985Z,5
2017-01-11T07:53:53.966Z,10
2017-01-11T07:55:02.940Z,10
2017-01-11T07:56:12.139Z,10
2017-01-11T07:57:26.045Z,10
2017-01-11T07:58:41.438Z,10
2017-01-11T07:59:50.763Z,10
2017-01-11T08:00:59.744Z,10
2017-01-11T08:02:08.729Z,10
2017-01-11T08:03:17.706Z,10
2017-01-11T08:04:26.688Z,10
2017-01-11T08:05:35.667Z,10
2017-01-11T08:06:44.644Z,10
2017-01-11T08:07:53.624Z,10
2017-01-11T08:09:02.601Z,10
2017-01-11T08:10:11.608Z,10
2017-01-11T08:11:25.947Z,10
2017-01-11T08:12:34.923Z,10
2017-01-11T08:13:44.579Z,10
2017-01-11T08:14:54.241Z,10
2017-01-11T08:16:04.569Z,10
2017-01-11T08:17:15.120Z,10
2017-01-11T08:18:24.859Z,10
2017-01-11T08:19:35.123Z,10
2017-01-11T08:20:45.034Z,10
2017-01-11T08:21:55.106Z,15
2017-01-11T08:23:05.420Z,15
2017-01-11T08:24:15.568Z,15
2017-01-11T08:25:25.307Z,15
2017-01-11T08:26:34.533Z,10
2017-01-11T08:27:44.406Z,10
2017-01-11T08:28:54.379Z,10
2017-01-11T08:30:04.510Z,15
2017-01-11T08:31:15.059Z,15
2017-01-11T08:32:24.276Z,15
2017-01-11T08:33:33.550Z,15
2017-01-11T08:34:42.524Z,20
2017-01-11T08:35:51.506Z,20
2017-01-11T08:37:00.497Z,15
2017-01-11T08:38:09.479Z,15
2017-01-11T08:39:18.454Z,15
2017-01-11T08:40:27.428Z,15
2017-01-11T08:41:36.410Z,15
2017-01-11T08:42:45.392Z,15
2017-01-11T08:43:54.381Z,15
2017-01-11T08:45:03.386Z,15
2017-01-11T08:46:12.362Z,15
2017-01-11T08:47:21.336Z,15
2017-01-11T08:48:30.727Z,20
2017-01-11T08:49:39.710Z,20
2017-01-11T08:50:48.889Z,20
2017-01-11T08:51:57.924Z,20
2017-01-11T08:53:06.901Z,20
2017-01-11T08:54:15.880Z,20
2017-01-11T08:55:24.854Z,20
2017-01-11T08:56:33.834Z,20
2017-01-11T08:57:42.820Z,20
2017-01-11T08:58:51.800Z,20
2017-01-11T09:00:00.789Z,20
2017-01-11T09:01:09.765Z,20
2017-01-11T09:02:18.746Z,20
2017-01-11T09:03:27.722Z,20
2017-01-11T09:04:36.700Z,20
2017-01-11T09:05:45.677Z,20
2017-01-11T09:06:54.652Z,20
2017-01-11T09:08:03.631Z,25
2017-01-11T09:09:12.609Z,30
2017-01-11T09:10:21.592Z,30
2017-01-11T09:11:30.569Z,30
2017-01-11T09:12:39.554Z,30
2017-01-11T09:13:48.666Z,30
2017-01-11T09:14:57.663Z,30
2017-01-11T09:16:06.644Z,30
2017-01-11T09:17:15.625Z,30
2017-01-11T09:18:24.606Z,30
2017-01-11T09:19:33.582Z,35
2017-01-11T09:20:42.562Z,35
2017-01-11T09:21:51.571Z,35
2017-01-11T09:23:00.556Z,35
2017-01-11T09:24:09.539Z,35
2017-01-11T09:25:18.514Z,35
2017-01-11T09:26:27.493Z,30
2017-01-11T09:27:36.599Z,30
2017-01-11T09:28:45.835Z,35
2017-01-11T09:29:54.830Z,35
2017-01-11T09:31:03.806Z,40
2017-01-11T09:32:12.778Z,45
2017-01-11T09:33:21.836Z,50
2017-01-11T09:34:30.847Z,60
2017-01-11T09:35:39.831Z,65
2017-01-11T09:36:48.811Z,70
2017-01-11T09:37:57.793Z,75
2017-01-11T09:39:06.770Z,80
2017-01-11T09:40:15.754Z,80
2017-01-11T09:41:24.734Z,80
2017-01-11T09:42:33.723Z,80
2017-01-11T09:43:42.701Z,75
2017-01-11T09:44:51.712Z,70
2017-01-11T09:46:01.329Z,65
2017-01-11T09:47:10.315Z,60
2017-01-11T09:48:19.294Z,55
2017-01-11T09:49:28.282Z,60
2017-01-11T09:50:37.266Z,65
2017-01-11T09:51:46.248Z,60
2017-01-11T09:52:57.993Z,65
2017-01-11T09:54:08.738Z,65
2017-01-11T09:55:18.181Z,70
2017-01-11T09:56:27.159Z,75
2017-01-11T09:57:36.138Z,80
2017-01-11T09:58:45.116Z,80
2017-01-11T09:59:54.095Z,80
2017-01-11T10:01:03.073Z,80
2017-01-11T10:02:12.051Z,75
2017-01-11T10:03:21.062Z,70
2017-01-11T10:04:30.044Z,70
2017-01-11T10:05:39.025Z,65
2017-01-11T10:06:48.007Z,60
2017-01-11T10:07:57.011Z,60
2017-01-11T10:09:05.991Z,60
2017-01-11T10:10:14.968Z,65
2017-01-11T10:11:23.952Z,65
2017-01-11T10:12:32.931Z,60
2017-01-11T10:13:41.908Z,55
2017-01-11T10:14:50.889Z,55
2017-01-11T10:15:59.867Z,55
2017-01-11T10:17:08.848Z,55
2017-01-11T10:18:18.266Z,55
2017-01-11T10:19:27.244Z,50
2017-01-11T10:20:36.225Z,50
2017-01-11T10:21:45.212Z,50
2017-01-11T10:22:54.191Z,50
2017-01-11T10:24:03.174Z,55
2017-01-11T10:25:12.151Z,55
2017-01-11T10:26:21.128Z,55
2017-01-11T10:27:30.105Z,55
2017-01-11T10:28:39.085Z,50
2017-01-11T10:29:48.063Z,50
2017-01-11T10:30:57.460Z,45
2017-01-11T10:32:06.444Z,50
2017-01-11T10:33:15.736Z,50
2017-01-11T10:34:24.755Z,50
2017-01-11T10:35:33.732Z,50
2017-01-11T10:36:42.714Z,55
2017-01-11T10:37:51.688Z,60
2017-01-11T10:39:00.673Z,60
2017-01-11T10:40:09.654Z,65
2017-01-11T10:41:18.638Z,70
2017-01-11T10:42:27.614Z,70
2017-01-11T10:43:39.885Z,70
2017-01-11T10:44:49.611Z,65
2017-01-11T10:45:59.544Z,60
2017-01-11T10:47:09.898Z,60
2017-01-11T10:48:19.691Z,65
2017-01-11T10:49:30.495Z,60
2017-01-11T10:50:40.393Z,60
2017-01-11T10:51:50.259Z,55
2017-01-11T10:52:59.878Z,50
2017-01-11T10:54:09.772Z,45
2017-01-11T10:55:19.000Z,45
2017-01-11T10:56:29.150Z,45
2017-01-11T10:57:38.383Z,45
2017-01-11T10:58:47.689Z,40
2017-01-11T10:59:57.891Z,40
2017-01-11T11:01:07.491Z,40
2017-01-11T11:02:16.976Z,40
2017-01-11T11:03:26.183Z,45
2017-01-11T11:04:35.164Z,45
2017-01-11T11:05:44.145Z,40
2017-01-11T11:06:57.655Z,35
2017-01-11T11:08:06.710Z,35
2017-01-11T11:09:15.871Z,35
2017-01-11T11:10:24.858Z,35
2017-01-11T11:11:33.835Z,35
2017-01-11T11:12:43.108Z,35
2017-01-11T11:13:52.089Z,35
2017-01-11T11:15:01.072Z,35
2017-01-11T11:16:10.064Z,40
2017-01-11T11:17:19.043Z,40
2017-01-11T11:18:28.025Z,35
2017-01-11T11:19:37.012Z,40
2017-01-11T11:20:45.987Z,40
2017-01-11T11:21:54.960Z,40
2017-01-11T11:23:03.943Z,45
2017-01-11T11:24:12.920Z,50
2017-01-11T11:25:22.580Z,55
2017-01-11T11:26:31.588Z,60
2017-01-11T11:27:40.568Z,60
2017-01-11T11:28:49.542Z,60
2017-01-11T11:29:58.520Z,60
2017-01-11T11:31:07.500Z,60
2017-01-11T11:32:16.477Z,55
2017-01-11T11:33:25.457Z,50
2017-01-11T11:34:34.433Z,50
2017-01-11T11:35:43.411Z,45
2017-01-11T11:36:52.388Z,45
2017-01-11T11:38:01.368Z,40
2017-01-11T11:39:10.353Z,35
2017-01-11T11:40:19.772Z,40
2017-01-11T11:41:29.896Z,35
2017-01-11T11:42:39.344Z,35
2017-01-11T11:43:48.331Z,30
2017-01-11T11:44:57.321Z,25
2017-01-11T11:46:06.306Z,30
2017-01-11T11:47:15.281Z,30
2017-01-11T11:48:24.259Z,30
2017-01-11T11:49:33.279Z,35
2017-01-11T11:50:42.258Z,35
2017-01-11T11:51:51.238Z,30
2017-01-11T11:53:00.212Z,25
2017-01-11T11:54:09.192Z,25
2017-01-11T11:55:18.174Z,25
2017-01-11T11:56:27.152Z,30
2017-01-11T11:57:36.153Z,30
2017-01-11T11:58:45.134Z,25
2017-01-11T11:59:54.118Z,20
2017-01-11T12:01:03.524Z,20
2017-01-11T12:02:12.505Z,20
2017-01-11T12:03:22.120Z,20
2017-01-11T12:04:31.686Z,20
2017-01-11T12:05:40.665Z,25
2017-01-11T12:06:49.645Z,25
2017-01-11T12:07:58.626Z,30
2017-01-11T12:09:07.603Z,30
2017-01-11T12:10:22.171Z,30
2017-01-11T12:11:32.011Z,30
2017-01-11T12:12:41.426Z,30
2017-01-11T12:13:51.175Z,30
2017-01-11T12:15:00.183Z,30
2017-01-11T12:16:09.270Z,25
2017-01-11T12:17:18.288Z,25
2017-01-11T12:18:27.296Z,25
2017-01-11T12:19:36.294Z,25
2017-01-11T12:20:45.332Z,25
2017-01-11T12:21:54.334Z,30
2017-01-11T12:23:03.391Z,35
2017-01-11T12:24:12.390Z,40
2017-01-11T12:25:21.383Z,45
2017-01-11T12:26:30.398Z,45
2017-01-11T12:27:39.392Z,50
2017-01-11T12:28:48.377Z,50
2017-01-11T12:29:57.353Z,55
2017-01-11T12:31:06.342Z,60
2017-01-11T12:32:15.325Z,65
2017-01-11T12:33:24.307Z,65
2017-01-11T12:34:33.315Z,60
2017-01-11T12:35:42.290Z,50
2017-01-11T12:36:51.272Z,45
2017-01-11T12:38:00.627Z,45
2017-01-11T12:39:10.189Z,50
2017-01-11T12:40:19.170Z,50
2017-01-11T12:41:28.530Z,45
2017-01-11T12:42:37.528Z,45
2017-01-11T12:43:46.615Z,40
2017-01-11T12:44:55.600Z,45
2017-01-11T12:46:04.872Z,40
2017-01-11T12:47:14.849Z,40
2017-01-11T12:48:24.722Z,35
2017-01-11T12:49:33.700Z,35
2017-01-11T12:50:42.732Z,40
2017-01-11T12:51:52.091Z,45
2017-01-11T12:53:01.180Z,45
2017-01-11T12:54:10.459Z,45
2017-01-11T12:55:20.308Z,45
2017-01-11T12:56:29.783Z,45
2017-01-11T12:57:39.097Z,45
2017-01-11T12:58:48.075Z,50
2017-01-11T12:59:57.602Z,50
2017-01-11T13:01:06.583Z,55
2017-01-11T13:02:16.134Z,50
2017-01-11T13:03:25.120Z,50
2017-01-11T13:04:34.642Z,40
2017-01-11T13:05:44.019Z,30
2017-01-11T13:06:53.264Z,20
2017-01-11T13:08:03.389Z,15
2017-01-11T13:09:12.939Z,10
2017-01-11T13:10:22.165Z,10
2017-01-11T13:11:31.525Z,10
2017-01-11T13:12:40.502Z,10
2017-01-11T13:13:49.483Z,5
2017-01-11T13:14:58.472Z,5
2017-01-11T13:16:07.452Z,5
2017-01-11T13:17:16.437Z,10
2017-01-11T13:18:25.431Z,10
2017-01-11T13:19:34.415Z,10
2017-01-11T13:20:43.401Z,10
2017-01-11T13:21:52.381Z,10
2017-01-11T13:23:01.364Z,10
2017-01-11T13:24:10.343Z,5
2017-01-11T13:25:19.938Z,10
2017-01-11T13:26:29.248Z,5
2017-01-11T13:27:38.524Z,10
2017-01-11T13:28:48.380Z,10
2017-01-11T13:29:57.361Z,10
2017-01-11T13:31:06.855Z,10
2017-01-11T13:32:15.842Z,5
2017-01-11T13:33:24.826Z,5
2017-01-11T13:34:33.807Z,5
2017-01-11T13:35:42.788Z,0
2017-01-11T13:36:51.768Z,0
2017-01-11T13:38:00.751Z,0
2017-01-11T13:39:09.734Z,0
2017-01-11T13:40:18.713Z,0
2017-01-11T13:41:27.702Z,0
2017-01-11T13:42:36.680Z,0
2017-01-11T13:43:45.687Z,0
2017-01-11T13:44:54.666Z,0
2017-01-11T13:46:04.076Z,0
2017-01-11T13:47:13.890Z,0
2017-01-11T13:48:23.416Z,0
2017-01-11T13:49:32.571Z,0
2017-01-11T13:50:41.992Z,0
2017-01-11T13:51:51.551Z,0
2017-01-11T13:53:01.642Z,0
2017-01-11T13:54:11.377Z,0
2017-01-11T13:55:20.666Z,0
2017-01-11T13:56:30.358Z,0
2017-01-11T13:57:39.343Z,0
2017-01-11T13:58:48.324Z,0
2017-01-11T13:59:57.296Z,0
2017-01-11T14:01:06.275Z,0
2017-01-11T14:02:15.257Z,0
2017-01-11T14:03:24.237Z,0
2017-01-11T14:04:33.216Z,0
2017-01-11T14:05:42.196Z,0
2017-01-11T14:06:51.175Z,0
2017-01-11T14:08:00.151Z,0
2017-01-11T14:09:09.140Z,0
2017-01-11T14:10:18.120Z,0
2017-01-11T14:11:27.102Z,0
2017-01-11T14:12:36.088Z,0
2017-01-11T14:13:45.073Z,0
2017-01-11T14:14:54.053Z,0
2017-01-11T14:16:03.034Z,0
2017-01-11T14:17:12.018Z,0
2017-01-11T14:18:21.001Z,0
2017-01-11T14:19:29.986Z,0
2017-01-11T14:20:38.968Z,0
2017-01-11T14:21:47.981Z,0
2017-01-11T14:22:56.963Z,0
2017-01-11T14:24:05.942Z,0
2017-01-11T14:25:14.929Z,0
2017-01-11T14:26:23.911Z,0
2017-01-11T14:27:32.911Z,0
2017-01-11T14:28:41.916Z,0
2017-01-11T14:29:50.897Z,0
2017-01-11T14:30:59.871Z,0
2017-01-11T14:32:08.848Z,0
2017-01-11T14:33:17.831Z,0
2017-01-11T14:34:26.818Z,0
2017-01-11T14:35:35.801Z,0
2017-01-11T14:36:44.783Z,0
2017-01-11T14:37:53.762Z,0
2017-01-11T14:39:02.739Z,0
2017-01-11T14:40:11.719Z,0
2017-01-11T14:41:20.698Z,0
2017-01-11T14:42:29.677Z,0
2017-01-11T14:43:38.654Z,0
2017-01-11T14:44:47.633Z,0
2017-01-11T14:45:56.607Z,0
2017-01-11T14:47:05.584Z,0
2017-01-11T14:48:14.570Z,0
2017-01-11T14:49:24.240Z,0
2017-01-11T14:50:34.413Z,0
2017-01-11T14:51:43.401Z,0
2017-01-11T14:52:52.726Z,0
2017-01-11T14:54:02.064Z,0
2017-01-11T14:55:11.404Z,0
2017-01-11T14:56:20.761Z,0
2017-01-11T14:57:30.199Z,0
2017-01-11T14:58:41.221Z,0
2017-01-11T14:59:50.205Z,0
2017-01-11T15:00:59.568Z,0
2017-01-11T15:02:08.809Z,0
2017-01-11T15:03:17.792Z,0
2017-01-11T15:04:26.772Z,0
2017-01-11T15:05:35.749Z,0
2017-01-11T15:06:44.723Z,0
2017-01-11T15:07:53.704Z,0
2017-01-11T15:09:02.693Z,0
2017-01-11T15:10:12.085Z,0
2017-01-11T15:11:21.091Z,0
2017-01-11T15:12:30.077Z,0
2017-01-11T15:13:39.059Z,0
2017-01-11T15:14:48.039Z,0
2017-01-11T15:15:57.020Z,0
2017-01-11T15:17:06.014Z,0
2017-01-11T15:18:14.996Z,0
2017-01-11T15:19:23.977Z,0
2017-01-11T15:20:32.955Z,0
2017-01-11T15:21:41.936Z,0
2017-01-11T15:22:50.915Z,0
2017-01-11T15:23:59.898Z,0
2017-01-11T15:25:08.881Z,0
2017-01-11T15:26:17.861Z,0
2017-01-11T15:27:26.841Z,0
2017-01-11T15:28:35.817Z,0
2017-01-11T15:29:44.809Z,0
2017-01-11T15:30:53.794Z,0
2017-01-11T15:32:02.779Z,0
2017-01-11T15:33:11.755Z,0
2017-01-11T15:34:20.742Z,0
2017-01-11T15:35:29.718Z,0
2017-01-11T15:36:38.697Z,0
2017-01-11T15:37:47.672Z,0
2017-01-11T15:38:56.651Z,0
2017-01-11T15:40:05.636Z,0
2017-01-11T15:41:14.615Z,0
2017-01-11T15:42:23.597Z,0
2017-01-11T15:43:32.573Z,0
2017-01-11T15:44:41.555Z,0
2017-01-11T15:45:50.531Z,0
2017-01-11T15:46:59.512Z,0
2017-01-11T15:48:08.510Z,0
2017-01-11T15:49:17.488Z,0
2017-01-11T15:50:26.463Z,0
2017-01-11T15:51:35.440Z,0
2017-01-11T15:52:44.564Z,0
2017-01-11T15:53:53.546Z,0
2017-01-11T15:55:02.525Z,0
2017-01-11T15:56:11.973Z,0
2017-01-11T15:57:20.952Z,0
2017-01-11T15:58:29.933Z,0
2017-01-11T15:59:39.189Z,0
2017-01-11T16:00:48.487Z,0
2017-01-11T16:01:57.548Z,0
2017-01-11T16:03:06.528Z,0
2017-01-11T16:04:15.504Z,0
2017-01-11T16:05:24.481Z,0
2017-01-11T16:06:33.466Z,0
2017-01-11T16:07:43.081Z,0
2017-01-11T16:08:52.060Z,0
2017-01-11T16:10:01.113Z,0
2017-01-11T16:11:11.339Z,0
2017-01-11T16:12:21.252Z,0
2017-01-11T16:13:30.234Z,0
2017-01-11T16:14:39.212Z,0
2017-01-11T16:15:48.192Z,0
2017-01-11T16:16:57.171Z,0
2017-01-11T16:18:06.147Z,0
2017-01-11T16:19:15.155Z,0
2017-01-11T16:20:24.133Z,0
2017-01-11T16:21:33.106Z,0
2017-01-11T16:22:42.089Z,0
2017-01-11T16:23:51.065Z,0
2017-01-11T16:25:00.044Z,0
2017-01-11T16:26:09.022Z,0
2017-01-11T16:27:18.003Z,0
2017-01-11T16:28:26.977Z,0
2017-01-11T16:29:35.948Z,0
2017-01-11T16:30:45.185Z,0
2017-01-11T16:31:54.241Z,0
2017-01-11T16:33:05.632Z,0
2017-01-11T16:34:16.339Z,0
2017-01-11T16:35:25.426Z,0
2017-01-11T16:36:34.621Z,0
2017-01-11T16:37:43.616Z,0
2017-01-11T16:38:53.166Z,0
2017-01-11T16:40:02.180Z,0
2017-01-11T16:41:11.633Z,0
2017-01-11T16:42:20.776Z,0
2017-01-11T16:43:29.852Z,0
2017-01-11T16:44:38.837Z,0
2017-01-11T16:45:47.812Z,0
2017-01-11T16:46:56.836Z,0
2017-01-11T16:48:05.821Z,0
2017-01-11T16:49:14.800Z,0
2017-01-11T16:50:23.781Z,0